createdAt,value
2023-12-26T00:00:17.704Z,49.08
2023-12-26T00:01:18.016Z,52.16
2023-12-26T00:02:17.788Z,55.17
2023-12-26T00:03:17.839Z,54.74
2023-12-26T00:04:19.023Z,51.14
2023-12-26T00:05:17.742Z,49.46
2023-12-26T00:06:17.796Z,51.26
2023-12-26T00:07:17.772Z,51.49
2023-12-26T00:08:17.872Z,50.96
2023-12-26T00:09:17.744Z,51.45
2023-12-26T00:10:17.985Z,50.90
2023-12-26T00:11:17.846Z,51.07
2023-12-26T00:12:17.991Z,50.41
2023-12-26T00:13:17.707Z,51.74
2023-12-26T00:14:17.696Z,52.06
2023-12-26T00:15:17.764Z,56.65
2023-12-26T00:16:17.756Z,52.84
2023-12-26T00:17:17.934Z,48.72
2023-12-26T00:18:17.962Z,58.01
2023-12-26T00:19:18.713Z,50.06
2023-12-26T00:20:17.669Z,50.27
2023-12-26T00:21:17.647Z,53.58
2023-12-26T00:22:17.680Z,49.63
2023-12-26T00:23:17.547Z,51.35
2023-12-26T00:24:17.791Z,52.46
2023-12-26T00:25:17.560Z,54.69
2023-12-26T00:26:17.588Z,50.18
2023-12-26T00:27:17.951Z,49.61
2023-12-26T00:28:17.607Z,49.53
2023-12-26T00:29:17.693Z,50.37
2023-12-26T00:30:17.537Z,49.68
2023-12-26T00:31:17.603Z,55.67
2023-12-26T00:32:17.844Z,54.44
2023-12-26T00:33:17.669Z,51.29
2023-12-26T00:34:17.936Z,53.52
2023-12-26T00:35:17.469Z,53.70
2023-12-26T00:36:17.708Z,53.76
2023-12-26T00:37:17.644Z,52.96
2023-12-26T00:38:17.386Z,52.47
2023-12-26T00:39:17.558Z,51.31
2023-12-26T00:40:17.494Z,52.15
2023-12-26T00:41:17.417Z,54.32
2023-12-26T00:42:17.567Z,53.31
2023-12-26T00:43:17.481Z,52.93
2023-12-26T00:44:17.784Z,49.11
2023-12-26T00:45:17.497Z,51.18
2023-12-26T00:46:17.550Z,51.46
2023-12-26T00:47:17.440Z,51.35
2023-12-26T00:48:17.434Z,53.00
2023-12-26T00:49:17.834Z,54.47
2023-12-26T00:50:17.624Z,51.09
2023-12-26T00:51:17.615Z,53.55
2023-12-26T00:52:17.296Z,54.12
2023-12-26T00:53:17.710Z,51.79
2023-12-26T00:54:17.321Z,54.94
2023-12-26T00:55:17.453Z,55.98
2023-12-26T00:56:17.279Z,53.83
2023-12-26T00:57:17.284Z,52.63
2023-12-26T00:58:17.374Z,52.56
2023-12-26T00:59:17.425Z,50.83
2023-12-26T01:00:17.298Z,56.34
2023-12-26T01:01:17.255Z,58.51
2023-12-26T01:02:17.284Z,57.11
2023-12-26T01:03:17.275Z,50.60
2023-12-26T01:04:17.292Z,52.14
2023-12-26T01:05:17.273Z,56.33
2023-12-26T01:06:17.211Z,56.06
2023-12-26T01:07:17.180Z,53.05
2023-12-26T01:08:17.175Z,52.02
2023-12-26T01:09:17.202Z,49.95
2023-12-26T01:10:17.375Z,53.18
2023-12-26T01:11:17.202Z,52.70
2023-12-26T01:12:17.189Z,55.05
2023-12-26T01:13:17.150Z,51.30
2023-12-26T01:14:17.177Z,50.77
2023-12-26T01:15:17.283Z,50.55
2023-12-26T01:16:17.131Z,51.27
2023-12-26T01:17:17.116Z,51.30
2023-12-26T01:18:17.185Z,52.72
2023-12-26T01:19:17.341Z,55.62
2023-12-26T01:20:17.080Z,52.08
2023-12-26T01:21:17.168Z,50.10
2023-12-26T01:22:17.086Z,51.43
2023-12-26T01:23:17.058Z,53.70
2023-12-26T01:24:17.095Z,53.65
2023-12-26T01:25:17.063Z,52.97
2023-12-26T01:26:17.566Z,53.97
2023-12-26T01:27:17.137Z,52.61
2023-12-26T01:28:17.048Z,49.04
2023-12-26T01:29:17.024Z,49.23
2023-12-26T01:30:17.164Z,50.85
2023-12-26T01:31:17.088Z,51.59
2023-12-26T01:32:17.002Z,49.70
2023-12-26T01:33:17.195Z,53.96
2023-12-26T01:34:17.103Z,51.80
2023-12-26T01:35:17.011Z,50.59
2023-12-26T01:36:17.240Z,53.53
2023-12-26T01:37:17.115Z,49.45
2023-12-26T01:38:17.016Z,49.98
2023-12-26T01:39:16.988Z,50.96
2023-12-26T01:40:16.946Z,52.78
2023-12-26T01:41:16.996Z,52.08
2023-12-26T01:42:16.971Z,50.07
2023-12-26T01:43:16.985Z,49.86
2023-12-26T01:44:16.919Z,53.40
2023-12-26T01:45:17.173Z,50.05
2023-12-26T01:46:16.914Z,50.19
2023-12-26T01:47:16.945Z,48.65
2023-12-26T01:48:17.155Z,50.43
2023-12-26T01:49:17.056Z,52.78
2023-12-26T01:50:16.879Z,51.00
2023-12-26T01:51:17.164Z,52.08
2023-12-26T01:52:17.038Z,52.63
2023-12-26T01:53:16.862Z,52.64
2023-12-26T01:54:16.872Z,54.89
2023-12-26T01:55:16.852Z,56.49
2023-12-26T01:56:16.840Z,52.43
2023-12-26T01:57:16.882Z,54.77
2023-12-26T01:58:16.822Z,52.71
2023-12-26T01:59:16.848Z,55.67
2023-12-26T02:00:16.908Z,51.35
2023-12-26T02:01:16.833Z,52.45
2023-12-26T02:02:16.901Z,53.06
2023-12-26T02:03:16.889Z,50.81
2023-12-26T02:04:16.867Z,52.92
2023-12-26T02:05:16.818Z,57.23
2023-12-26T02:06:16.817Z,54.13
2023-12-26T02:07:16.836Z,50.09
2023-12-26T02:08:18.578Z,51.29
2023-12-26T02:09:16.747Z,54.56
2023-12-26T02:10:16.766Z,51.95
2023-12-26T02:11:16.733Z,55.03
2023-12-26T02:12:16.754Z,53.02
2023-12-26T02:13:16.757Z,53.81
2023-12-26T02:14:16.701Z,54.30
2023-12-26T02:15:16.881Z,58.30
2023-12-26T02:16:16.727Z,57.06
2023-12-26T02:17:16.698Z,51.37
2023-12-26T02:18:16.792Z,51.73
2023-12-26T02:19:16.818Z,54.97
2023-12-26T02:20:16.660Z,53.55
2023-12-26T02:21:16.697Z,53.62
2023-12-26T02:22:16.690Z,53.59
2023-12-26T02:23:16.637Z,55.30
2023-12-26T02:24:16.729Z,52.21
2023-12-26T02:25:16.622Z,55.14
2023-12-26T02:26:16.804Z,51.97
2023-12-26T02:27:16.729Z,53.01
2023-12-26T02:28:16.592Z,51.35
2023-12-26T02:29:16.610Z,51.28
2023-12-26T02:30:16.666Z,51.94
2023-12-26T02:31:16.689Z,55.40
2023-12-26T02:32:16.897Z,56.90
2023-12-26T02:33:16.760Z,58.13
2023-12-26T02:34:16.705Z,52.76
2023-12-26T02:35:16.543Z,54.59
2023-12-26T02:36:16.539Z,55.83
2023-12-26T02:37:16.617Z,56.72
2023-12-26T02:38:16.522Z,53.94
2023-12-26T02:39:16.589Z,56.47
2023-12-26T02:40:16.503Z,56.87
2023-12-26T02:41:16.495Z,55.80
2023-12-26T02:42:16.594Z,55.31
2023-12-26T02:43:16.489Z,59.62
2023-12-26T02:44:16.489Z,55.87
2023-12-26T02:45:16.489Z,53.17
2023-12-26T02:46:16.461Z,53.80
2023-12-26T02:47:16.510Z,56.18
2023-12-26T02:48:16.590Z,55.29
2023-12-26T02:49:17.478Z,55.76
2023-12-26T02:50:16.429Z,54.79
2023-12-26T02:51:16.519Z,50.69
2023-12-26T02:52:16.437Z,51.59
2023-12-26T02:53:16.421Z,49.65
2023-12-26T02:54:16.478Z,57.40
2023-12-26T02:55:16.432Z,53.85
2023-12-26T02:56:16.398Z,55.22
2023-12-26T02:57:16.504Z,53.78
2023-12-26T02:58:16.387Z,51.21
2023-12-26T02:59:16.367Z,51.90
2023-12-26T03:00:16.539Z,50.16
2023-12-26T03:01:16.397Z,47.65
2023-12-26T03:02:16.340Z,50.63
2023-12-26T03:03:16.447Z,49.60
2023-12-26T03:04:16.341Z,54.68
2023-12-26T03:05:16.374Z,48.48
2023-12-26T03:06:16.340Z,48.42
2023-12-26T03:07:16.347Z,49.00
2023-12-26T03:08:16.452Z,52.02
2023-12-26T03:09:16.322Z,57.47
2023-12-26T03:10:16.296Z,52.16
2023-12-26T03:11:16.290Z,54.04
2023-12-26T03:12:16.301Z,49.21
2023-12-26T03:13:16.290Z,52.16
2023-12-26T03:14:16.303Z,49.91
2023-12-26T03:15:16.317Z,47.94
2023-12-26T03:16:16.247Z,53.54
2023-12-26T03:17:16.245Z,55.92
2023-12-26T03:18:16.481Z,48.81
2023-12-26T03:19:16.556Z,49.42
2023-12-26T03:20:16.232Z,51.32
2023-12-26T03:21:16.243Z,53.84
2023-12-26T03:22:16.211Z,48.58
2023-12-26T03:23:16.230Z,52.51
2023-12-26T03:24:16.235Z,50.78
2023-12-26T03:25:16.192Z,52.29
2023-12-26T03:26:16.190Z,47.54
2023-12-26T03:27:16.210Z,52.87
2023-12-26T03:28:16.276Z,48.29
2023-12-26T03:29:16.169Z,49.54
2023-12-26T03:30:16.196Z,49.19
2023-12-26T03:31:16.182Z,50.07
2023-12-26T03:32:16.150Z,47.59
2023-12-26T03:33:16.268Z,49.62
2023-12-26T03:34:16.353Z,51.62
2023-12-26T03:35:16.164Z,50.72
2023-12-26T03:36:16.178Z,49.02
2023-12-26T03:37:16.098Z,48.74
2023-12-26T03:38:16.127Z,47.27
2023-12-26T03:39:16.187Z,49.34
2023-12-26T03:40:16.084Z,49.07
2023-12-26T03:41:16.062Z,56.32
2023-12-26T03:42:16.203Z,49.89
2023-12-26T03:43:16.077Z,48.39
2023-12-26T03:44:16.151Z,53.35
2023-12-26T03:45:16.134Z,49.60
2023-12-26T03:46:16.064Z,48.59
2023-12-26T03:47:16.100Z,47.89
2023-12-26T03:48:16.190Z,48.46
2023-12-26T03:49:16.260Z,48.13
2023-12-26T03:50:16.051Z,48.78
2023-12-26T03:51:16.129Z,50.24
2023-12-26T03:52:16.009Z,48.03
2023-12-26T03:53:15.988Z,47.53
2023-12-26T03:54:16.006Z,47.63
2023-12-26T03:55:15.980Z,52.41
2023-12-26T03:56:15.958Z,49.67
2023-12-26T03:57:15.980Z,48.70
2023-12-26T03:58:15.953Z,53.19
2023-12-26T03:59:15.964Z,48.53
2023-12-26T04:00:16.100Z,51.13
2023-12-26T04:01:15.945Z,47.11
2023-12-26T04:02:15.929Z,47.75
2023-12-26T04:03:16.028Z,48.48
2023-12-26T04:04:16.024Z,48.78
2023-12-26T04:05:15.936Z,47.56
2023-12-26T04:06:15.891Z,48.16
2023-12-26T04:07:15.935Z,49.68
2023-12-26T04:08:15.901Z,48.55
2023-12-26T04:09:16.005Z,50.26
2023-12-26T04:10:15.884Z,48.25
2023-12-26T04:11:15.909Z,48.98
2023-12-26T04:12:15.911Z,49.01
2023-12-26T04:13:15.855Z,49.49
2023-12-26T04:14:15.854Z,50.59
2023-12-26T04:15:15.943Z,50.33
2023-12-26T04:16:15.819Z,49.76
2023-12-26T04:17:15.888Z,48.34
2023-12-26T04:18:15.930Z,47.25
2023-12-26T04:19:15.943Z,46.48
2023-12-26T04:20:15.790Z,48.72
2023-12-26T04:21:15.801Z,46.90
2023-12-26T04:22:15.803Z,48.71
2023-12-26T04:23:15.804Z,47.12
2023-12-26T04:24:15.874Z,47.49
2023-12-26T04:25:15.746Z,46.94
2023-12-26T04:26:15.742Z,48.23
2023-12-26T04:27:15.847Z,48.75
2023-12-26T04:28:15.728Z,49.88
2023-12-26T04:29:15.737Z,49.59
2023-12-26T04:30:15.808Z,49.62
2023-12-26T04:31:15.721Z,48.14
2023-12-26T04:32:15.706Z,47.76
2023-12-26T04:33:15.931Z,48.27
2023-12-26T04:34:15.854Z,48.23
2023-12-26T04:35:15.675Z,51.08
2023-12-26T04:36:15.732Z,51.06
2023-12-26T04:37:15.668Z,49.87
2023-12-26T04:38:15.661Z,51.30
2023-12-26T04:39:15.741Z,49.47
2023-12-26T04:40:15.650Z,50.35
2023-12-26T04:41:15.643Z,49.28
2023-12-26T04:42:15.673Z,50.98
2023-12-26T04:43:15.634Z,49.80
2023-12-26T04:44:15.652Z,47.96
2023-12-26T04:45:15.756Z,47.52
2023-12-26T04:46:15.613Z,48.61
2023-12-26T04:47:15.598Z,51.19
2023-12-26T04:48:15.767Z,48.73
2023-12-26T04:49:15.664Z,48.20
2023-12-26T04:50:15.595Z,48.55
2023-12-26T04:51:15.602Z,49.36
2023-12-26T04:52:15.818Z,49.26
2023-12-26T04:53:15.619Z,48.25
2023-12-26T04:54:15.575Z,48.64
2023-12-26T04:55:15.574Z,49.32
2023-12-26T04:56:15.534Z,50.45
2023-12-26T04:57:15.618Z,49.87
2023-12-26T04:58:15.522Z,51.44
2023-12-26T04:59:15.534Z,48.16
2023-12-26T05:00:15.589Z,48.69
2023-12-26T05:01:15.633Z,46.85
2023-12-26T05:02:15.491Z,49.95
2023-12-26T05:03:15.719Z,50.49
2023-12-26T05:04:15.590Z,47.86
2023-12-26T05:05:15.519Z,52.85
2023-12-26T05:06:15.577Z,48.96
2023-12-26T05:07:15.453Z,49.03
2023-12-26T05:08:15.454Z,50.06
2023-12-26T05:09:15.610Z,48.85
2023-12-26T05:10:15.477Z,50.29
2023-12-26T05:11:15.458Z,50.94
2023-12-26T05:12:15.543Z,51.50
2023-12-26T05:13:15.411Z,50.20
2023-12-26T05:14:15.409Z,53.21
2023-12-26T05:15:15.510Z,48.87
2023-12-26T05:16:15.404Z,50.63
2023-12-26T05:17:15.427Z,49.59
2023-12-26T05:18:15.465Z,49.47
2023-12-26T05:19:15.473Z,50.63
2023-12-26T05:20:26.212Z,51.04
2023-12-26T05:21:16.383Z,51.01
2023-12-26T05:22:15.363Z,48.97
2023-12-26T05:23:15.351Z,49.58
2023-12-26T05:24:15.398Z,49.56
2023-12-26T05:25:15.368Z,50.41
2023-12-26T05:26:15.320Z,48.27
2023-12-26T05:27:15.451Z,50.69
2023-12-26T05:28:15.325Z,48.85
2023-12-26T05:29:15.319Z,48.92
2023-12-26T05:30:15.421Z,49.19
2023-12-26T05:31:15.331Z,49.83
2023-12-26T05:32:15.407Z,48.62
2023-12-26T05:33:15.349Z,49.89
2023-12-26T05:34:15.330Z,48.81
2023-12-26T05:35:15.280Z,55.81
2023-12-26T05:36:15.298Z,50.69
2023-12-26T05:37:15.253Z,48.85
2023-12-26T05:38:15.238Z,48.69
2023-12-26T05:39:15.305Z,51.21
2023-12-26T05:40:15.274Z,50.67
2023-12-26T05:41:15.216Z,50.62
2023-12-26T05:42:15.324Z,49.27
2023-12-26T05:43:15.231Z,49.94
2023-12-26T05:44:15.227Z,48.93
2023-12-26T05:45:15.618Z,51.70
2023-12-26T05:46:15.199Z,51.30
2023-12-26T05:47:15.180Z,48.52
2023-12-26T05:48:15.456Z,48.26
2023-12-26T05:49:15.359Z,49.33
2023-12-26T05:50:15.233Z,51.47
2023-12-26T05:51:15.181Z,48.55
2023-12-26T05:52:15.131Z,48.71
2023-12-26T05:53:15.171Z,50.09
2023-12-26T05:54:15.193Z,50.70
2023-12-26T05:55:15.152Z,50.10
2023-12-26T05:56:15.110Z,50.10
2023-12-26T05:57:15.126Z,51.32
2023-12-26T05:58:15.108Z,48.55
2023-12-26T05:59:15.121Z,49.92
2023-12-26T06:00:15.163Z,51.09
2023-12-26T06:01:15.167Z,49.65
2023-12-26T06:02:15.076Z,48.32
2023-12-26T06:03:15.126Z,48.74
2023-12-26T06:04:15.122Z,49.27
2023-12-26T06:05:15.046Z,48.19
2023-12-26T06:06:15.239Z,48.75
2023-12-26T06:07:15.031Z,51.20
2023-12-26T06:08:15.027Z,53.52
2023-12-26T06:09:15.143Z,51.78
2023-12-26T06:10:15.025Z,51.33
2023-12-26T06:11:15.025Z,50.02
2023-12-26T06:12:15.029Z,50.65
2023-12-26T06:13:14.984Z,50.91
2023-12-26T06:14:15.091Z,50.14
2023-12-26T06:15:15.124Z,50.03
2023-12-26T06:16:14.978Z,48.23
2023-12-26T06:17:14.956Z,49.72
2023-12-26T06:18:15.083Z,48.93
2023-12-26T06:19:15.208Z,51.05
2023-12-26T06:20:15.024Z,54.62
2023-12-26T06:21:14.961Z,49.14
2023-12-26T06:22:14.942Z,50.47
2023-12-26T06:23:14.926Z,49.65
2023-12-26T06:24:14.989Z,48.90
2023-12-26T06:25:14.952Z,48.80
2023-12-26T06:26:14.943Z,48.26
2023-12-26T06:27:14.990Z,48.34
2023-12-26T06:28:14.924Z,48.51
2023-12-26T06:29:14.898Z,48.73
2023-12-26T06:30:14.946Z,49.62
2023-12-26T06:31:15.064Z,49.96
2023-12-26T06:32:14.873Z,50.28
2023-12-26T06:33:14.977Z,48.97
2023-12-26T06:34:14.970Z,48.43
2023-12-26T06:35:14.842Z,49.43
2023-12-26T06:36:14.978Z,50.49
2023-12-26T06:37:14.824Z,52.83
2023-12-26T06:38:14.827Z,56.54
2023-12-26T06:39:14.904Z,50.69
2023-12-26T06:40:14.796Z,51.32
2023-12-26T06:41:14.801Z,51.83
2023-12-26T06:42:14.872Z,53.00
2023-12-26T06:43:14.792Z,52.67
2023-12-26T06:44:14.786Z,50.31
2023-12-26T06:45:14.812Z,51.42
2023-12-26T06:46:14.768Z,51.16
2023-12-26T06:47:14.787Z,52.41
2023-12-26T06:48:14.915Z,50.51
2023-12-26T06:49:14.795Z,49.95
2023-12-26T06:50:14.757Z,50.45
2023-12-26T06:51:14.785Z,48.94
2023-12-26T06:52:14.713Z,50.28
2023-12-26T06:53:14.718Z,50.50
2023-12-26T06:54:14.811Z,50.39
2023-12-26T06:55:15.309Z,50.04
2023-12-26T06:56:14.717Z,50.33
2023-12-26T06:57:14.793Z,50.15
2023-12-26T06:58:14.750Z,50.32
2023-12-26T06:59:14.708Z,50.08
2023-12-26T07:00:14.744Z,50.05
2023-12-26T07:01:14.942Z,49.09
2023-12-26T07:02:16.477Z,49.74
2023-12-26T07:03:14.787Z,49.08
2023-12-26T07:04:14.694Z,50.89
2023-12-26T07:05:14.780Z,52.14
2023-12-26T07:06:14.678Z,53.98
2023-12-26T07:07:14.608Z,54.89
2023-12-26T07:08:14.601Z,54.14
2023-12-26T07:09:14.657Z,53.95
2023-12-26T07:10:14.625Z,53.70
2023-12-26T07:11:14.672Z,55.09
2023-12-26T07:12:14.636Z,55.33
2023-12-26T07:13:14.735Z,54.68
2023-12-26T07:14:14.565Z,55.09
2023-12-26T07:15:14.634Z,55.00
2023-12-26T07:16:14.598Z,55.91
2023-12-26T07:17:14.546Z,56.40
2023-12-26T07:18:14.625Z,57.86
2023-12-26T07:19:14.789Z,55.85
2023-12-26T07:20:14.536Z,56.27
2023-12-26T07:21:14.622Z,53.95
2023-12-26T07:22:14.529Z,52.18
2023-12-26T07:23:14.496Z,50.45
2023-12-26T07:24:14.621Z,49.38
2023-12-26T07:25:14.492Z,49.07
2023-12-26T07:26:14.497Z,48.16
2023-12-26T07:27:14.586Z,47.78
2023-12-26T07:28:14.466Z,48.60
2023-12-26T07:29:14.456Z,48.68
2023-12-26T07:30:14.693Z,50.91
2023-12-26T07:31:14.464Z,47.78
2023-12-26T07:32:14.443Z,49.12
2023-12-26T07:33:14.554Z,48.81
2023-12-26T07:34:14.503Z,49.02
2023-12-26T07:35:14.474Z,49.99
2023-12-26T07:36:14.449Z,49.18
2023-12-26T07:37:14.412Z,49.10
2023-12-26T07:38:14.411Z,48.68
2023-12-26T07:39:14.446Z,49.44
2023-12-26T07:40:14.443Z,50.74
2023-12-26T07:41:14.382Z,54.28
2023-12-26T07:42:14.493Z,48.79
2023-12-26T07:43:14.386Z,48.61
2023-12-26T07:44:14.364Z,47.86
2023-12-26T07:45:14.427Z,48.09
2023-12-26T07:46:14.363Z,47.86
2023-12-26T07:47:14.374Z,48.18
2023-12-26T07:48:14.501Z,47.93
2023-12-26T07:49:14.469Z,47.45
2023-12-26T07:50:14.534Z,48.18
2023-12-26T07:51:14.364Z,48.47
2023-12-26T07:52:14.318Z,51.10
2023-12-26T07:53:14.300Z,48.69
2023-12-26T07:54:14.404Z,47.74
2023-12-26T07:55:15.695Z,48.10
2023-12-26T07:56:14.279Z,49.82
2023-12-26T07:57:14.397Z,49.75
2023-12-26T07:58:14.277Z,47.37
2023-12-26T07:59:14.264Z,49.92
2023-12-26T08:00:14.877Z,48.13
2023-12-26T08:01:14.260Z,48.13
2023-12-26T08:02:14.236Z,47.82
2023-12-26T08:03:14.353Z,48.01
2023-12-26T08:04:14.364Z,47.77
2023-12-26T08:05:14.289Z,47.13
2023-12-26T08:06:14.353Z,47.22
2023-12-26T08:07:14.231Z,47.50
2023-12-26T08:08:14.193Z,48.08
2023-12-26T08:09:14.227Z,48.63
2023-12-26T08:10:14.223Z,46.91
2023-12-26T08:11:14.176Z,46.40
2023-12-26T08:12:14.272Z,46.93
2023-12-26T08:13:14.167Z,47.20
2023-12-26T08:14:14.158Z,46.69
2023-12-26T08:15:14.234Z,49.10
2023-12-26T08:16:14.144Z,52.41
2023-12-26T08:17:14.151Z,47.66
2023-12-26T08:18:14.262Z,47.44
2023-12-26T08:19:16.092Z,47.41
2023-12-26T08:20:14.140Z,46.57
2023-12-26T08:21:14.223Z,46.48
2023-12-26T08:22:14.143Z,46.37
2023-12-26T08:23:14.140Z,46.93
2023-12-26T08:24:14.102Z,49.51
2023-12-26T08:25:14.072Z,49.81
2023-12-26T08:26:14.119Z,52.62
2023-12-26T08:27:14.137Z,50.91
2023-12-26T08:28:14.068Z,54.31
2023-12-26T08:29:14.060Z,52.24
2023-12-26T08:30:14.144Z,50.79
2023-12-26T08:31:14.078Z,50.40
2023-12-26T08:32:14.028Z,48.11
2023-12-26T08:33:14.122Z,47.38
2023-12-26T08:34:14.133Z,46.83
2023-12-26T08:35:14.043Z,46.06
2023-12-26T08:36:14.053Z,45.64
2023-12-26T08:37:13.987Z,45.81
2023-12-26T08:38:14.016Z,45.99
2023-12-26T08:39:14.055Z,46.28
2023-12-26T08:40:13.969Z,45.87
2023-12-26T08:41:14.009Z,45.87
2023-12-26T08:42:14.101Z,45.64
2023-12-26T08:43:14.391Z,46.16
2023-12-26T08:44:13.948Z,46.50
2023-12-26T08:45:14.040Z,46.52
2023-12-26T08:46:13.948Z,47.78
2023-12-26T08:47:13.929Z,49.49
2023-12-26T08:48:14.101Z,48.48
2023-12-26T08:49:14.019Z,49.16
2023-12-26T08:50:13.939Z,47.19
2023-12-26T08:51:14.002Z,47.15
2023-12-26T08:52:13.868Z,46.76
2023-12-26T08:53:13.862Z,46.14
2023-12-26T08:54:13.911Z,45.42
2023-12-26T08:55:13.896Z,45.32
2023-12-26T08:56:13.838Z,45.53
2023-12-26T08:57:13.895Z,45.25
2023-12-26T08:58:13.831Z,44.96
2023-12-26T08:59:13.818Z,46.30
2023-12-26T09:00:13.914Z,46.38
2023-12-26T09:01:13.841Z,44.97
2023-12-26T09:02:13.800Z,44.90
2023-12-26T09:03:14.255Z,44.87
2023-12-26T09:04:13.877Z,44.59
2023-12-26T09:05:13.840Z,44.91
2023-12-26T09:06:13.949Z,45.13
2023-12-26T09:07:13.773Z,48.26
2023-12-26T09:08:13.762Z,45.40
2023-12-26T09:09:13.794Z,44.54
2023-12-26T09:10:13.832Z,44.52
2023-12-26T09:11:13.760Z,44.75
2023-12-26T09:12:13.780Z,45.03
2023-12-26T09:13:13.726Z,44.59
2023-12-26T09:14:13.715Z,44.68
2023-12-26T09:15:13.774Z,45.05
2023-12-26T09:16:13.700Z,46.04
2023-12-26T09:17:13.699Z,45.97
2023-12-26T09:18:13.799Z,50.01
2023-12-26T09:19:13.793Z,45.38
2023-12-26T09:20:13.699Z,44.88
2023-12-26T09:21:13.718Z,45.25
2023-12-26T09:22:13.671Z,45.87
2023-12-26T09:23:13.680Z,45.96
2023-12-26T09:24:13.702Z,45.92
2023-12-26T09:25:13.715Z,45.71
2023-12-26T09:26:13.630Z,47.20
2023-12-26T09:27:13.706Z,47.39
2023-12-26T09:28:13.617Z,47.46
2023-12-26T09:29:13.612Z,51.38
2023-12-26T09:30:13.716Z,48.69
2023-12-26T09:31:13.688Z,48.04
2023-12-26T09:32:13.635Z,48.00
2023-12-26T09:33:13.716Z,48.61
2023-12-26T09:34:13.658Z,48.69
2023-12-26T09:35:13.576Z,49.61
2023-12-26T09:36:13.869Z,49.71
2023-12-26T09:37:13.544Z,50.33
2023-12-26T09:38:13.539Z,50.19
2023-12-26T09:39:13.615Z,49.14
2023-12-26T09:40:13.573Z,50.01
2023-12-26T09:41:13.551Z,55.21
2023-12-26T09:42:13.613Z,54.01
2023-12-26T09:43:13.528Z,54.42
2023-12-26T09:44:13.495Z,49.84
2023-12-26T09:45:13.706Z,50.08
2023-12-26T09:46:13.475Z,49.07
2023-12-26T09:47:13.502Z,48.99
2023-12-26T09:48:13.723Z,48.55
2023-12-26T09:49:16.082Z,49.55
2023-12-26T09:50:13.596Z,49.54
2023-12-26T09:51:13.569Z,48.65
2023-12-26T09:52:13.537Z,49.07
2023-12-26T09:53:13.429Z,49.27
2023-12-26T09:54:13.469Z,48.97
2023-12-26T09:55:13.561Z,49.92
2023-12-26T09:56:13.410Z,50.47
2023-12-26T09:57:13.451Z,48.89
2023-12-26T09:58:13.398Z,48.31
2023-12-26T09:59:13.449Z,48.80
2023-12-26T10:00:13.414Z,49.23
2023-12-26T10:01:13.391Z,49.99
2023-12-26T10:02:13.380Z,48.28
2023-12-26T10:03:13.423Z,49.19
2023-12-26T10:04:13.452Z,48.91
2023-12-26T10:05:13.366Z,51.47
2023-12-26T10:06:13.385Z,52.18
2023-12-26T10:07:13.359Z,48.96
2023-12-26T10:08:13.392Z,51.15
2023-12-26T10:09:13.334Z,49.76
2023-12-26T10:10:13.319Z,48.35
2023-12-26T10:11:13.298Z,47.70
2023-12-26T10:12:13.473Z,48.58
2023-12-26T10:13:13.302Z,48.00
2023-12-26T10:14:13.278Z,47.34
2023-12-26T10:15:13.304Z,48.89
2023-12-26T10:16:13.256Z,54.92
2023-12-26T10:17:13.257Z,49.59
2023-12-26T10:18:13.401Z,48.88
2023-12-26T10:19:14.112Z,48.61
2023-12-26T10:20:13.223Z,49.76
2023-12-26T10:21:13.275Z,49.01
2023-12-26T10:22:13.251Z,49.96
2023-12-26T10:23:13.444Z,49.52
2023-12-26T10:24:13.237Z,50.91
2023-12-26T10:25:13.188Z,53.22
2023-12-26T10:26:13.207Z,50.80
2023-12-26T10:27:13.245Z,50.41
2023-12-26T10:28:13.265Z,48.70
2023-12-26T10:29:13.325Z,49.67
2023-12-26T10:30:13.297Z,48.25
2023-12-26T10:31:13.511Z,48.52
2023-12-26T10:32:13.146Z,49.43
2023-12-26T10:33:13.290Z,48.05
2023-12-26T10:34:13.227Z,49.03
2023-12-26T10:35:13.116Z,47.59
2023-12-26T10:36:13.155Z,46.39
2023-12-26T10:37:13.106Z,47.46
2023-12-26T10:38:13.120Z,47.08
2023-12-26T10:39:13.145Z,46.27
2023-12-26T10:40:13.082Z,47.14
2023-12-26T10:41:13.077Z,47.95
2023-12-26T10:42:13.114Z,48.07
2023-12-26T10:43:13.060Z,47.50
2023-12-26T10:44:13.082Z,47.71
2023-12-26T10:45:13.089Z,47.47
2023-12-26T10:46:13.039Z,47.29
2023-12-26T10:47:13.069Z,48.01
2023-12-26T10:48:13.136Z,48.34
2023-12-26T10:49:13.126Z,49.41
2023-12-26T10:50:13.083Z,47.81
2023-12-26T10:51:13.035Z,47.52
2023-12-26T10:52:13.074Z,48.18
2023-12-26T10:53:13.002Z,48.79
2023-12-26T10:54:13.008Z,48.83
2023-12-26T10:55:12.993Z,47.94
2023-12-26T10:56:12.977Z,47.25
2023-12-26T10:57:13.022Z,48.66
2023-12-26T10:58:12.966Z,48.38
2023-12-26T10:59:12.949Z,47.77
2023-12-26T11:00:13.041Z,48.85
2023-12-26T11:01:13.012Z,48.53
2023-12-26T11:02:16.418Z,48.12
2023-12-26T11:03:13.011Z,48.77
2023-12-26T11:04:13.087Z,48.59
2023-12-26T11:05:12.958Z,46.78
2023-12-26T11:06:12.983Z,47.88
2023-12-26T11:07:12.908Z,48.47
2023-12-26T11:08:12.876Z,48.03
2023-12-26T11:09:12.975Z,47.16
2023-12-26T11:10:12.877Z,48.36
2023-12-26T11:11:12.883Z,47.37
2023-12-26T11:12:12.906Z,47.77
2023-12-26T11:13:12.849Z,47.67
2023-12-26T11:14:12.841Z,47.67
2023-12-26T11:15:12.877Z,47.34
2023-12-26T11:16:12.914Z,47.99
2023-12-26T11:17:12.835Z,47.35
2023-12-26T11:18:12.953Z,47.80
2023-12-26T11:19:12.946Z,47.77
2023-12-26T11:20:12.815Z,47.09
2023-12-26T11:21:12.922Z,47.62
2023-12-26T11:22:12.791Z,47.32
2023-12-26T11:23:12.775Z,47.74
2023-12-26T11:24:12.803Z,48.44
2023-12-26T11:25:13.191Z,47.78
2023-12-26T11:26:12.761Z,47.69
2023-12-26T11:27:12.823Z,48.23
2023-12-26T11:28:12.741Z,47.35
2023-12-26T11:29:12.737Z,48.80
2023-12-26T11:30:12.826Z,48.00
2023-12-26T11:31:12.732Z,47.66
2023-12-26T11:32:12.835Z,46.99
2023-12-26T11:33:12.779Z,47.43
2023-12-26T11:34:12.879Z,47.30
2023-12-26T11:35:12.744Z,47.45
2023-12-26T11:36:12.754Z,50.79
2023-12-26T11:37:12.673Z,48.11
2023-12-26T11:38:12.682Z,48.25
2023-12-26T11:39:12.697Z,48.40
2023-12-26T11:40:12.660Z,48.48
2023-12-26T11:41:12.687Z,54.43
2023-12-26T11:42:12.661Z,53.17
2023-12-26T11:43:12.644Z,47.56
2023-12-26T11:44:12.636Z,47.99
2023-12-26T11:45:12.711Z,47.53
2023-12-26T11:46:12.642Z,47.35
2023-12-26T11:47:12.622Z,47.44
2023-12-26T11:48:12.705Z,48.10
2023-12-26T11:49:12.669Z,49.57
2023-12-26T11:50:12.582Z,47.20
2023-12-26T11:51:12.681Z,48.36
2023-12-26T11:52:12.595Z,48.11
2023-12-26T11:53:12.594Z,47.73
2023-12-26T11:54:12.607Z,47.82
2023-12-26T11:55:12.542Z,47.70
2023-12-26T11:56:12.540Z,49.42
2023-12-26T11:57:12.612Z,51.66
2023-12-26T11:58:12.518Z,53.59
2023-12-26T11:59:12.510Z,48.02
2023-12-26T12:00:12.553Z,48.39
2023-12-26T12:01:12.521Z,47.74
2023-12-26T12:02:12.486Z,47.71
2023-12-26T12:03:12.559Z,47.59
2023-12-26T12:04:12.669Z,47.66
2023-12-26T12:05:12.472Z,48.05
2023-12-26T12:06:12.531Z,47.13
2023-12-26T12:07:12.522Z,48.08
2023-12-26T12:08:12.483Z,47.77
2023-12-26T12:09:12.493Z,48.84
2023-12-26T12:10:12.438Z,48.25
2023-12-26T12:11:12.444Z,47.44
2023-12-26T12:12:12.467Z,47.25
2023-12-26T12:13:14.720Z,47.11
2023-12-26T12:14:12.401Z,47.97
2023-12-26T12:15:12.435Z,51.48
2023-12-26T12:16:12.383Z,53.29
2023-12-26T12:17:12.379Z,50.20
2023-12-26T12:18:12.563Z,48.80
2023-12-26T12:19:12.615Z,49.54
2023-12-26T12:20:12.423Z,49.40
2023-12-26T12:21:12.384Z,49.89
2023-12-26T12:22:12.345Z,48.54
2023-12-26T12:23:12.355Z,49.56
2023-12-26T12:24:12.481Z,49.17
2023-12-26T12:25:12.313Z,49.31
2023-12-26T12:26:12.344Z,50.79
2023-12-26T12:27:12.339Z,48.85
2023-12-26T12:28:12.307Z,47.70
2023-12-26T12:29:12.536Z,49.15
2023-12-26T12:30:12.395Z,49.92
2023-12-26T12:31:12.370Z,48.73
2023-12-26T12:32:12.348Z,48.03
2023-12-26T12:33:12.492Z,48.00
2023-12-26T12:34:12.434Z,48.21
2023-12-26T12:35:12.249Z,49.45
2023-12-26T12:36:12.426Z,48.78
2023-12-26T12:37:12.231Z,50.21
2023-12-26T12:38:12.227Z,49.90
2023-12-26T12:39:12.298Z,49.48
2023-12-26T12:40:12.221Z,49.88
2023-12-26T12:41:12.253Z,49.30
2023-12-26T12:42:12.248Z,49.18
2023-12-26T12:43:12.207Z,49.72
2023-12-26T12:44:16.688Z,49.63
2023-12-26T12:45:13.309Z,51.19
2023-12-26T12:46:12.187Z,49.76
2023-12-26T12:47:12.172Z,50.79
2023-12-26T12:48:12.486Z,51.40
2023-12-26T12:49:13.212Z,49.43
2023-12-26T12:50:12.191Z,51.20
2023-12-26T12:51:12.177Z,50.29
2023-12-26T12:52:12.181Z,50.70